Time;durP1;ratioP1;P1;durP2;ratioP2;P2;SDS_P1;SDS_P2;PMS_P1;PMS_P2;Temp;Humidity;BMP_temperature;BMP_pressure;BME280_temperature;BME280_humidity;BME280_pressure;Samples;Min_cycle;Max_cycle;Signal;HPM_P1;HPM_P2
2024/02/08 00:00:41;;;;;;;0.90;0.43;;;;;;;7.23;100.00;96016.59;5018734;28;20473;-57
2024/02/08 00:03:11;;;;;;;1.92;0.50;;;;;;;7.29;100.00;96019.03;5014226;28;20037;-57
2024/02/08 00:05:37;;;;;;;0.52;0.30;;;;;;;7.24;100.00;96012.81;5024714;28;20078;-58
2024/02/08 00:08:04;;;;;;;0.75;0.43;;;;;;;7.23;100.00;96017.38;5026075;28;20120;-59
2024/02/08 00:10:32;;;;;;;0.80;0.30;;;;;;;7.36;100.00;96026.88;5022935;28;20037;-58
2024/02/08 00:12:58;;;;;;;0.85;0.47;;;;;;;7.29;100.00;96020.91;5023547;28;20488;-59
2024/02/08 00:15:25;;;;;;;1.17;0.50;;;;;;;7.27;100.00;96015.78;5016215;28;20048;-58
2024/02/08 00:17:51;;;;;;;1.95;0.50;;;;;;;7.36;100.00;96021.47;5019901;28;20076;-58
2024/02/08 00:20:18;;;;;;;0.52;0.30;;;;;;;7.46;100.00;96018.03;5029196;28;20049;-58
2024/02/08 00:22:46;;;;;;;0.35;0.30;;;;;;;7.49;100.00;96019.38;5014383;28;20044;-59
2024/02/08 00:25:13;;;;;;;0.85;0.30;;;;;;;7.46;100.00;96011.81;5018863;28;20060;-59
2024/02/08 00:27:39;;;;;;;0.30;0.30;;;;;;;7.55;100.00;96012.91;5028729;28;20049;-56
2024/02/08 00:30:06;;;;;;;0.70;0.20;;;;;;;7.61;100.00;96011.84;5025786;28;20115;-57
2024/02/08 00:32:33;;;;;;;0.55;0.20;;;;;;;7.65;100.00;96010.25;5020769;28;20047;-58
2024/02/08 00:35:03;;;;;;;0.50;0.28;;;;;;;7.63;100.00;96014.28;5025906;28;20312;-59
2024/02/08 00:37:34;;;;;;;0.35;0.20;;;;;;;7.51;100.00;96006.44;5024184;28;20361;-58
2024/02/08 00:40:00;;;;;;;1.55;0.30;;;;;;;7.55;100.00;96013.72;5028193;28;20096;-59
2024/02/08 00:42:27;;;;;;;0.65;0.30;;;;;;;7.64;100.00;96005.13;5026351;28;20288;-58
2024/02/08 00:44:53;;;;;;;0.20;0.20;;;;;;;7.51;100.00;95985.69;5027678;28;20048;-59
2024/02/08 00:47:20;;;;;;;0.68;0.30;;;;;;;7.56;100.00;95993.00;5033456;28;20129;-57
2024/02/08 00:49:48;;;;;;;0.35;0.20;;;;;;;7.54;100.00;95987.06;5025897;28;20042;-56
2024/02/08 00:52:14;;;;;;;0.25;0.20;;;;;;;7.40;100.00;95981.34;5027214;28;20037;-59
2024/02/08 00:54:41;;;;;;;1.50;0.20;;;;;;;7.49;100.00;95979.75;5030588;28;20045;-58
2024/02/08 00:57:10;;;;;;;0.77;0.20;;;;;;;7.47;100.00;95983.78;5028419;28;20125;-58
2024/02/08 00:59:37;;;;;;;0.38;0.20;;;;;;;7.55;100.00;95988.66;5025668;28;20264;-58
2024/02/08 01:02:09;;;;;;;0.30;0.20;;;;;;;7.58;100.00;95990.84;5022344;28;20304;-59
2024/02/08 01:04:36;;;;;;;1.17;0.40;;;;;;;7.61;100.00;95992.19;5025368;28;20213;-59
2024/02/08 01:07:03;;;;;;;0.10;0.10;;;;;;;7.60;100.00;95987.88;5032217;28;20041;-58
2024/02/08 01:09:29;;;;;;;0.10;0.10;;;;;;;7.57;100.00;95991.91;5025582;28;20091;-58
2024/02/08 01:11:56;;;;;;;1.40;0.45;;;;;;;7.62;100.00;95991.09;5024504;28;20045;-57
2024/02/08 01:14:22;;;;;;;1.48;0.20;;;;;;;7.68;100.00;95992.75;5027118;28;20044;-57
2024/02/08 01:16:54;;;;;;;0.30;0.20;;;;;;;7.75;100.00;95992.47;5023248;28;20045;-58
2024/02/08 01:19:25;;;;;;;0.57;0.30;;;;;;;7.75;100.00;95997.88;5025451;28;20584;-58
2024/02/08 01:21:52;;;;;;;0.35;0.10;;;;;;;7.56;100.00;95995.69;5024082;28;20037;-56
2024/02/08 01:24:19;;;;;;;0.45;0.20;;;;;;;7.55;100.00;96000.25;5033471;28;20052;-57
2024/02/08 01:26:46;;;;;;;0.20;0.10;;;;;;;7.58;100.00;96001.59;5027842;28;20120;-56
2024/02/08 01:29:13;;;;;;;0.47;0.30;;;;;;;7.61;100.00;95995.69;5034243;28;20051;-58
2024/02/08 01:31:40;;;;;;;0.10;0.10;;;;;;;7.63;100.00;95995.44;5016889;28;20053;-57
2024/02/08 01:34:08;;;;;;;0.25;0.20;;;;;;;7.55;100.00;95989.47;5019296;28;20040;-57
2024/02/08 01:36:37;;;;;;;0.00;0.00;;;;;;;7.53;100.00;96002.41;5019538;28;20041;-57
2024/02/08 01:39:12;;;;;;;1.27;0.20;;;;;;;7.62;100.00;95996.47;5019709;28;20489;-58
2024/02/08 01:41:45;;;;;;;0.40;0.30;;;;;;;7.64;100.00;96000.56;5028354;28;20068;-59
2024/02/08 01:44:13;;;;;;;0.32;0.20;;;;;;;7.67;100.00;96008.09;5032256;28;20496;-58
2024/02/08 01:46:40;;;;;;;0.10;0.10;;;;;;;7.77;100.00;95993.81;5029995;28;20053;-59
2024/02/08 01:49:19;;;;;;;0.10;0.10;;;;;;;7.74;100.00;95988.97;5018051;28;20037;-58
2024/02/08 01:51:47;;;;;;;0.30;0.10;;;;;;;7.81;100.00;95988.69;5023726;28;20248;-58
2024/02/08 01:54:14;;;;;;;0.10;0.10;;;;;;;7.71;100.00;95996.78;5025944;28;20045;-58
2024/02/08 01:56:41;;;;;;;0.43;0.20;;;;;;;7.73;100.00;95990.03;5026340;28;20048;-58
2024/02/08 01:59:10;;;;;;;0.50;0.30;;;;;;;7.70;100.00;95998.66;5029110;28;20119;-59
2024/02/08 02:01:37;;;;;;;0.35;0.20;;;;;;;7.72;100.00;95993.00;5025309;28;20045;-57
2024/02/08 02:04:07;;;;;;;0.40;0.20;;;;;;;7.67;100.00;95991.13;5026744;28;20037;-58
2024/02/08 02:06:35;;;;;;;2.77;0.23;;;;;;;7.59;100.00;95986.25;5027313;28;20103;-56
2024/02/08 02:09:02;;;;;;;0.40;0.20;;;;;;;7.60;100.00;95986.00;5008145;28;20497;-58
2024/02/08 02:11:41;;;;;;;0.85;0.68;;;;;;;7.64;100.00;95992.47;5014106;28;20519;-58
2024/02/08 02:14:09;;;;;;;0.38;0.20;;;;;;;7.68;100.00;95988.13;5021317;28;20053;-57
2024/02/08 02:16:36;;;;;;;1.80;0.30;;;;;;;7.63;100.00;95990.03;5020915;28;20416;-58
2024/02/08 02:19:03;;;;;;;0.95;0.20;;;;;;;7.72;100.00;95980.34;5022848;28;20107;-58
2024/02/08 02:21:29;;;;;;;0.77;0.20;;;;;;;7.77;100.00;95982.22;5023829;28;20060;-59
2024/02/08 02:23:56;;;;;;;1.30;0.20;;;;;;;7.77;100.00;95969.56;5015979;28;20040;-57
2024/02/08 02:26:23;;;;;;;1.65;0.20;;;;;;;7.78;100.00;95976.56;5021405;28;20073;-59
2024/02/08 02:28:50;;;;;;;2.15;0.32;;;;;;;7.84;100.00;95977.38;5025023;28;20521;-56
2024/02/08 02:31:19;;;;;;;0.28;0.10;;;;;;;7.76;100.00;95983.31;5024549;28;21033;-57
2024/02/08 02:33:47;;;;;;;0.55;0.20;;;;;;;7.74;100.00;95978.19;5031284;28;20042;-58
2024/02/08 02:36:13;;;;;;;0.43;0.20;;;;;;;7.77;100.00;95977.66;5027276;28;20451;-57
2024/02/08 02:38:41;;;;;;;0.30;0.20;;;;;;;7.85;100.00;95980.91;5014880;28;20448;-57
2024/02/08 02:41:08;;;;;;;0.30;0.20;;;;;;;7.78;100.00;95978.47;5016568;28;20073;-57
2024/02/08 02:43:36;;;;;;;0.20;0.10;;;;;;;7.83;100.00;95980.34;5016380;28;20040;-58
2024/02/08 02:46:05;;;;;;;0.28;0.15;;;;;;;7.93;100.00;95983.06;5026946;28;20045;-56
2024/02/08 02:48:35;;;;;;;1.00;0.10;;;;;;;8.06;100.00;95979.00;5026957;28;20098;-57
2024/02/08 02:51:02;;;;;;;0.05;0.05;;;;;;;8.11;100.00;95970.91;5021363;28;20076;-58
2024/02/08 02:53:30;;;;;;;0.47;0.20;;;;;;;7.98;100.00;95972.28;5020385;28;20143;-57
2024/02/08 02:55:58;;;;;;;0.13;0.10;;;;;;;8.05;100.00;95972.00;5017994;28;20045;-57
2024/02/08 02:58:26;;;;;;;0.17;0.15;;;;;;;7.99;100.00;95973.88;5023154;28;20056;-56
2024/02/08 03:01:04;;;;;;;0.20;0.13;;;;;;;7.94;100.00;95963.13;5018530;28;20414;-57
2024/02/08 03:03:40;;;;;;;0.20;0.20;;;;;;;7.86;100.00;95955.56;5018413;28;20029;-58
2024/02/08 03:06:14;;;;;;;0.73;0.20;;;;;;;7.93;100.00;95961.50;5017021;28;20048;-56
2024/02/08 03:08:46;;;;;;;0.52;0.32;;;;;;;8.00;100.00;95964.72;5023830;28;20131;-57
2024/02/08 03:11:14;;;;;;;0.38;0.10;;;;;;;7.94;100.00;95955.84;5021939;28;20049;-59
2024/02/08 03:13:43;;;;;;;0.50;0.10;;;;;;;7.99;100.00;95956.94;5018112;28;20501;-55
2024/02/08 03:16:10;;;;;;;0.30;0.10;;;;;;;7.96;100.00;95947.47;5018292;28;20100;-59
2024/02/08 03:18:38;;;;;;;0.65;0.20;;;;;;;7.99;100.00;95940.75;5017678;28;20058;-57
2024/02/08 03:21:05;;;;;;;0.57;0.20;;;;;;;8.03;100.00;95941.81;5022056;28;20262;-57
2024/02/08 03:23:31;;;;;;;0.10;0.10;;;;;;;7.96;100.00;95939.38;5028634;28;20036;-59
2024/02/08 03:25:58;;;;;;;0.30;0.10;;;;;;;8.02;100.00;95946.41;5017511;28;20045;-59
2024/02/08 03:28:25;;;;;;;0.88;0.10;;;;;;;8.03;100.00;95945.31;5023513;28;20448;-58
2024/02/08 03:30:55;;;;;;;0.52;0.10;;;;;;;8.15;100.00;95944.25;5022815;28;20107;-58
2024/02/08 03:33:22;;;;;;;0.20;0.20;;;;;;;8.09;100.00;95951.50;5021112;28;20065;-57
2024/02/08 03:35:53;;;;;;;0.40;0.20;;;;;;;8.13;100.00;95952.59;5018514;28;20128;-58
2024/02/08 03:38:20;;;;;;;0.32;0.15;;;;;;;8.23;100.00;95956.34;5015687;28;20045;-59
2024/02/08 03:40:46;;;;;;;0.30;0.10;;;;;;;8.06;100.00;95958.25;5018220;28;20278;-58
2024/02/08 03:43:15;;;;;;;0.32;0.20;;;;;;;7.98;100.00;95948.03;5020847;28;20041;-58
2024/02/08 03:45:44;;;;;;;1.75;0.30;;;;;;;7.97;100.00;95948.28;5015084;28;20053;-58
2024/02/08 03:48:10;;;;;;;0.20;0.17;;;;;;;7.98;100.00;95952.59;5022449;28;20135;-59
2024/02/08 03:50:39;;;;;;;0.30;0.28;;;;;;;7.99;100.00;95948.84;5012309;28;20041;-57
2024/02/08 03:53:12;;;;;;;0.10;0.10;;;;;;;7.97;100.00;95956.38;5019221;28;20083;-56
2024/02/08 03:55:43;;;;;;;0.73;0.25;;;;;;;7.97;100.00;95956.38;5020851;28;20117;-57
2024/02/08 03:58:13;;;;;;;0.85;0.20;;;;;;;8.03;100.00;95955.28;5020042;28;20064;-57
2024/02/08 04:00:46;;;;;;;0.22;0.20;;;;;;;7.98;100.00;95942.63;5018811;28;20060;-57
2024/02/08 04:03:43;;;;;;;0.55;0.15;;;;;;;7.80;100.00;95944.78;5018931;28;20682;-58
2024/02/08 04:06:16;;;;;;;0.55;0.10;;;;;;;7.77;100.00;95955.28;5033883;28;20042;-57
2024/02/08 04:09:06;;;;;;;0.50;0.20;;;;;;;7.76;100.00;95950.97;5020589;28;20283;-58
2024/02/08 04:55:31;;;;;;;0.55;0.30;;;;;;;7.79;100.00;95926.19;5009899;28;20048;-60
2024/02/08 04:57:57;;;;;;;1.58;0.60;;;;;;;7.65;100.00;95917.84;5024480;28;20428;-59
2024/02/08 05:00:45;;;;;;;1.15;0.20;;;;;;;7.61;100.00;95922.16;5020930;28;20046;-60
2024/02/08 05:03:12;;;;;;;0.73;0.40;;;;;;;7.61;100.00;95919.44;5021950;28;20051;-59
2024/02/08 05:05:43;;;;;;;1.00;0.40;;;;;;;7.64;100.00;95927.00;5018842;28;20052;-59
2024/02/08 05:08:10;;;;;;;0.73;0.40;;;;;;;7.59;100.00;95918.91;5017507;28;20564;-60
2024/02/08 05:10:37;;;;;;;2.15;0.47;;;;;;;7.60;100.00;95915.97;5027186;28;20064;-60
2024/02/08 05:13:04;;;;;;;1.52;0.30;;;;;;;7.64;100.00;95908.97;5020952;28;20041;-59
2024/02/08 05:15:31;;;;;;;0.90;0.68;;;;;;;7.60;100.00;95904.38;5023517;28;20104;-58
2024/02/08 05:17:57;;;;;;;0.77;0.35;;;;;;;7.62;100.00;95916.50;5019338;28;20353;-60
2024/02/08 05:20:25;;;;;;;2.47;0.85;;;;;;;7.58;100.00;95926.19;5024374;28;20052;-59
2024/02/08 05:22:52;;;;;;;1.23;0.35;;;;;;;7.63;100.00;95920.78;5021435;28;20096;-59
2024/02/08 05:25:20;;;;;;;1.17;0.60;;;;;;;7.58;100.00;95920.78;5024072;28;20464;-60
2024/02/08 05:27:50;;;;;;;0.57;0.30;;;;;;;7.55;100.00;95927.53;5022656;28;20073;-59
2024/02/08 05:30:19;;;;;;;0.28;0.20;;;;;;;7.54;100.00;95920.53;5027369;28;20134;-59
2024/02/08 05:32:46;;;;;;;0.75;0.30;;;;;;;7.53;100.00;95923.50;5019341;28;20033;-60
2024/02/08 05:35:18;;;;;;;0.93;0.32;;;;;;;7.50;100.00;95924.03;5024727;28;20533;-60
2024/02/08 05:37:46;;;;;;;0.75;0.20;;;;;;;7.58;100.00;95933.44;5016957;28;20048;-59
2024/02/08 05:40:14;;;;;;;1.83;0.63;;;;;;;7.53;100.00;95918.91;5020018;28;20060;-60
2024/02/08 05:42:43;;;;;;;1.42;0.30;;;;;;;7.52;100.00;95922.66;5019281;28;20129;-59
2024/02/08 05:45:19;;;;;;;1.50;0.50;;;;;;;7.49;100.00;95922.41;5025428;28;20048;-57
2024/02/08 05:47:48;;;;;;;1.85;0.55;;;;;;;7.52;100.00;95919.97;5021795;28;20139;-58
2024/02/08 05:50:21;;;;;;;0.90;0.25;;;;;;;7.51;100.00;95917.56;5020220;28;20037;-59
2024/02/08 05:52:56;;;;;;;1.58;0.40;;;;;;;7.49;100.00;95912.44;5030412;28;20693;-58
2024/02/08 05:55:26;;;;;;;0.77;0.35;;;;;;;7.47;100.00;95919.16;5020953;28;20104;-57
2024/02/08 05:57:53;;;;;;;1.58;0.30;;;;;;;7.45;100.00;95918.63;5025635;28;20053;-58
2024/02/08 06:00:32;;;;;;;2.67;0.73;;;;;;;7.46;100.00;95920.25;5021609;28;20076;-58
2024/02/08 06:03:03;;;;;;;0.90;0.40;;;;;;;7.45;100.00;95918.63;5022498;28;20219;-58
2024/02/08 06:05:33;;;;;;;2.60;0.63;;;;;;;7.44;100.00;95922.41;5021477;28;20041;-58
2024/02/08 06:08:02;;;;;;;1.58;0.50;;;;;;;7.45;100.00;95922.16;5029695;28;20425;-59
2024/02/08 06:10:52;;;;;;;1.00;0.50;;;;;;;7.45;100.00;95924.84;5020068;28;20098;-59
2024/02/08 06:13:22;;;;;;;1.42;0.50;;;;;;;7.42;100.00;95926.16;5025650;28;20044;-59
2024/02/08 06:15:53;;;;;;;1.40;0.73;;;;;;;7.46;100.00;95928.31;5026763;28;20743;-59
2024/02/08 06:18:25;;;;;;;0.63;0.47;;;;;;;7.47;100.00;95940.72;5024739;28;20112;-58
2024/02/08 06:20:59;;;;;;;;;;;;;;;7.47;100.00;95940.72;5015073;28;20124;-59
2024/02/08 06:23:34;;;;;;;2.38;0.60;;;;;;;7.47;100.00;95940.72;5028031;28;19924;-60
2024/02/08 06:26:27;;;;;;;1.00;0.40;;;;;;;7.47;100.00;95928.06;5024376;28;20409;-59
2024/02/08 06:28:48;;;;;;;1.75;0.70;;;;;;;7.47;100.00;95946.09;5024322;28;20037;-57
2024/02/08 06:31:18;;;;;;;0.85;0.50;;;;;;;7.50;100.00;95940.19;5027216;28;20049;-60
2024/02/08 06:36:42;;;;;;;1.42;0.50;;;;;;;7.34;100.00;95950.91;5022984;28;20048;-58
2024/02/08 06:39:23;;;;;;;1.83;0.47;;;;;;;7.30;100.00;95949.84;5027210;28;20045;-59
2024/02/08 06:41:55;;;;;;;1.27;0.50;;;;;;;7.31;100.00;95950.66;5030618;28;20049;-60
2024/02/08 06:47:54;;;;;;;;;;;;;;;7.28;100.00;95955.50;5025796;28;20116;-59
2024/02/08 07:39:46;;;;;;;0.95;0.52;;;;;;;7.59;100.00;95940.47;5021222;28;20527;-60
2024/02/08 07:42:20;;;;;;;1.15;0.63;;;;;;;7.64;100.00;95927.00;5028981;28;20053;-58
2024/02/08 07:44:54;;;;;;;0.68;0.40;;;;;;;7.68;100.00;95936.16;5030276;28;20069;-59
2024/02/08 07:47:24;;;;;;;2.17;0.80;;;;;;;7.67;100.00;95931.84;5027596;28;20042;-59
2024/02/08 07:49:57;;;;;;;1.45;0.63;;;;;;;7.75;100.00;95930.50;5019070;28;20056;-59
2024/02/08 07:52:25;;;;;;;1.38;0.70;;;;;;;7.78;100.00;95924.59;5029335;28;20049;-59
2024/02/08 07:55:14;;;;;;;3.53;0.80;;;;;;;7.83;100.00;95929.16;5023270;28;20068;-60
2024/02/08 07:57:59;;;;;;;1.45;0.68;;;;;;;7.83;100.00;95929.16;5023714;28;20137;-60
2024/02/08 08:00:44;;;;;;;0.65;0.50;;;;;;;7.87;100.00;95917.56;5018069;28;20045;-57
2024/02/08 08:03:15;;;;;;;2.83;0.75;;;;;;;7.91;100.00;95920.53;5017602;28;20072;-52
2024/02/08 08:05:44;;;;;;;0.93;0.60;;;;;;;8.00;100.00;95920.81;5025374;28;20037;-55
2024/02/08 08:08:24;;;;;;;0.60;0.40;;;;;;;8.05;100.00;95916.22;5026570;28;20047;-54
2024/02/08 08:10:56;;;;;;;0.95;0.52;;;;;;;8.25;100.00;95925.34;5016141;28;20053;-56
2024/02/08 08:18:58;;;;;;;1.33;0.20;;;;;;;8.75;100.00;95915.78;5016981;28;20114;-53
2024/02/08 08:21:26;;;;;;;0.47;0.22;;;;;;;8.70;100.00;95916.63;5020233;28;20040;-55
2024/02/08 08:24:00;;;;;;;1.63;0.40;;;;;;;8.62;100.00;95917.19;5021650;28;20449;-57
2024/02/08 08:26:39;;;;;;;1.05;0.40;;;;;;;8.54;100.00;95907.75;5024919;28;20033;-54
2024/02/08 08:29:16;;;;;;;0.60;0.40;;;;;;;8.51;100.00;95914.47;5022256;28;20045;-55
2024/02/08 08:32:53;;;;;;;0.38;0.32;;;;;;;8.61;100.00;95908.28;5014647;28;20054;-51
2024/02/08 08:42:50;;;;;;;2.40;0.30;;;;;;;8.62;100.00;95907.19;5023516;28;20037;-54
2024/02/08 08:45:18;;;;;;;0.50;0.40;;;;;;;8.71;100.00;95908.22;5027459;28;20570;-54
2024/02/08 08:47:45;;;;;;;0.45;0.30;;;;;;;8.78;100.00;95909.84;5019333;28;20096;-57
2024/02/08 08:50:18;;;;;;;1.02;0.52;;;;;;;8.69;100.00;95906.91;5021813;28;20044;-57
2024/02/08 08:52:47;;;;;;;0.52;0.30;;;;;;;8.62;100.00;95906.41;5029857;28;20570;-56
2024/02/08 08:55:18;;;;;;;0.68;0.30;;;;;;;8.63;100.00;95908.81;5028853;28;20044;-56
2024/02/08 08:57:47;;;;;;;0.52;0.30;;;;;;;8.59;100.00;95908.56;5022580;28;20525;-54
2024/02/08 09:00:20;;;;;;;1.30;0.50;;;;;;;8.70;100.00;95908.53;4998590;28;20052;-59
2024/02/08 09:02:50;;;;;;;1.17;0.30;;;;;;;8.67;100.00;95899.06;4999502;28;20060;-55
2024/02/08 09:05:20;;;;;;;1.20;0.38;;;;;;;8.63;100.00;95886.44;5007220;28;20111;-52
2024/02/08 09:07:53;;;;;;;2.47;0.47;;;;;;;8.66;100.00;95897.47;5026145;28;20056;-50
2024/02/08 09:10:20;;;;;;;3.20;0.75;;;;;;;8.64;100.00;95899.63;5009199;28;20609;-60
2024/02/08 09:12:59;;;;;;;2.72;0.73;;;;;;;8.62;100.00;95904.50;5027533;28;20049;-61
2024/02/08 09:15:26;;;;;;;2.45;0.93;;;;;;;8.59;100.00;95905.06;5015330;28;20037;-61
2024/02/08 09:18:08;;;;;;;1.80;0.68;;;;;;;8.64;100.00;95891.56;5009482;28;20056;-61
2024/02/08 09:20:37;;;;;;;1.38;0.60;;;;;;;8.74;100.00;95903.38;5014145;28;20051;-61
2024/02/08 09:23:14;;;;;;;0.70;0.35;;;;;;;8.76;100.00;95895.81;5035492;28;20132;-61
2024/02/08 09:25:44;;;;;;;1.13;0.60;;;;;;;8.66;100.00;95892.06;5025180;28;20064;-61
2024/02/08 09:28:35;;;;;;;0.38;0.38;;;;;;;8.82;100.00;95898.19;5030956;28;20040;-62
2024/02/08 09:31:12;;;;;;;1.00;0.43;;;;;;;8.95;100.00;95898.69;5032558;28;20034;-61
2024/02/08 09:34:00;;;;;;;0.73;0.40;;;;;;;8.86;100.00;95895.78;5030416;28;20449;-61
2024/02/08 09:36:29;;;;;;;1.10;0.50;;;;;;;8.83;100.00;95896.31;5028626;28;20048;-61
2024/02/08 09:38:56;;;;;;;1.55;0.80;;;;;;;8.88;100.00;95890.09;5030009;28;20774;-62
2024/02/08 09:41:26;;;;;;;1.90;0.70;;;;;;;8.81;100.00;95895.81;5034455;28;20732;-62
2024/02/08 09:43:56;;;;;;;0.57;0.45;;;;;;;8.85;100.00;95900.34;5028367;28;20033;-62
2024/02/08 09:49:18;;;;;;;1.38;0.55;;;;;;;9.09;100.00;95896.19;5032545;28;20037;-63
2024/02/08 09:51:57;;;;;;;0.90;0.45;;;;;;;9.12;100.00;95903.72;5028764;28;20045;-62
2024/02/08 09:54:30;;;;;;;0.88;0.50;;;;;;;9.10;100.00;95885.09;5025278;28;20508;-63
2024/02/08 09:57:03;;;;;;;1.10;0.50;;;;;;;9.19;100.00;95889.91;5023378;28;20128;-61
2024/02/08 10:02:24;;;;;;;0.30;0.30;;;;;;;9.31;100.00;95884.16;5025472;28;20048;-63
2024/02/08 10:04:57;;;;;;;0.85;0.45;;;;;;;9.29;100.00;95883.66;5028207;28;20607;-62
2024/02/08 10:07:37;;;;;;;1.20;0.50;;;;;;;9.24;100.00;95885.31;5026944;28;20155;-62
2024/02/08 10:10:15;;;;;;;1.48;0.50;;;;;;;9.32;100.00;95885.81;5031363;28;20825;-62
2024/02/08 10:13:04;;;;;;;0.60;0.35;;;;;;;9.46;100.00;95880.56;5021573;28;20124;-61
2024/02/08 10:15:44;;;;;;;0.77;0.40;;;;;;;9.52;100.00;95878.63;5004119;28;20083;-61
2024/02/08 10:18:13;;;;;;;0.68;0.22;;;;;;;9.58;100.00;95878.28;5019853;28;20149;-63
2024/02/08 10:20:46;;;;;;;1.05;0.40;;;;;;;9.56;100.00;95877.78;5015489;28;20083;-61
2024/02/08 10:23:33;;;;;;;1.08;0.50;;;;;;;9.66;100.00;95873.38;5019712;28;20686;-60
2024/02/08 10:28:56;;;;;;;0.95;0.38;;;;;;;9.71;100.00;95846.31;5031978;28;20045;-60
2024/02/08 10:31:24;;;;;;;1.42;0.57;;;;;;;9.58;100.00;95864.00;5025739;28;20045;-60
2024/02/08 10:34:09;;;;;;;1.20;0.38;;;;;;;9.55;100.00;95861.84;5025675;28;20126;-59
2024/02/08 10:36:44;;;;;;;0.20;0.20;;;;;;;9.53;100.00;95859.44;5021667;28;20037;-60
2024/02/08 10:39:23;;;;;;;1.33;0.40;;;;;;;9.50;100.00;95855.41;5027879;28;20037;-61
2024/02/08 10:41:58;;;;;;;1.15;0.40;;;;;;;9.45;100.00;95854.63;5019674;28;20059;-60
2024/02/08 10:44:29;;;;;;;0.85;0.30;;;;;;;9.45;100.00;95847.34;5030773;28;20052;-61
2024/02/08 10:47:05;;;;;;;1.73;0.40;;;;;;;9.37;100.00;95845.25;5025950;28;20079;-60
2024/02/08 10:49:44;;;;;;;1.25;0.43;;;;;;;9.43;100.00;95854.91;5024612;28;20052;-62
2024/02/08 10:52:16;;;;;;;1.00;0.60;;;;;;;9.53;100.00;95853.22;5020759;28;20049;-62
2024/02/08 10:54:48;;;;;;;1.00;0.40;;;;;;;9.60;100.00;95843.72;5020943;28;20128;-60
2024/02/08 11:00:49;;;;;;;1.00;0.40;;;;;;;9.86;100.00;95829.13;5024614;28;20076;-60
2024/02/08 11:02:48;;;;;;;2.20;0.60;;;;;;;9.82;100.00;95820.00;5020835;28;20049;-62
2024/02/08 11:05:47;;;;;;;0.80;0.38;;;;;;;9.93;100.00;95815.28;5020046;28;20056;-59
2024/02/08 11:08:13;;;;;;;1.50;0.45;;;;;;;10.09;100.00;95819.44;5023696;28;20104;-61
2024/02/08 11:10:45;;;;;;;0.90;0.40;;;;;;;10.18;100.00;95810.69;5022875;28;20045;-61
2024/02/08 11:13:20;;;;;;;0.80;0.30;;;;;;;10.32;100.00;95802.69;5030044;28;20120;-61
2024/02/08 11:15:50;;;;;;;3.97;0.50;;;;;;;10.39;100.00;95801.25;5024077;28;20060;-61
2024/02/08 11:18:33;;;;;;;1.30;0.50;;;;;;;10.37;100.00;95795.34;5024881;28;20041;-61
2024/02/08 11:21:04;;;;;;;1.73;0.73;;;;;;;10.48;100.00;95782.50;5023516;28;20037;-60
2024/02/08 11:23:32;;;;;;;;;;;;;;;10.44;100.00;95786.03;5022256;28;20045;-61
2024/02/08 11:26:08;;;;;;;0.80;0.20;;;;;;;10.50;100.00;95777.59;5019758;28;19925;-62
2024/02/08 11:28:47;;;;;;;0.20;0.20;;;;;;;10.58;100.00;95770.72;5021680;28;20428;-59
2024/02/08 11:31:25;;;;;;;1.83;0.40;;;;;;;10.62;100.00;95757.44;5023468;28;20065;-60
2024/02/08 11:33:55;;;;;;;0.80;0.30;;;;;;;10.68;100.00;95745.41;5024173;28;20072;-59
2024/02/08 11:36:34;;;;;;;1.08;0.38;;;;;;;10.73;100.00;95741.84;5020810;28;20060;-60
2024/02/08 11:39:26;;;;;;;0.70;0.57;;;;;;;10.80;100.00;95755.81;5024457;28;20116;-62
2024/02/08 11:41:48;;;;;;;1.15;0.35;;;;;;;10.68;100.00;95750.03;5013964;28;20041;-59
2024/02/08 11:44:21;;;;;;;3.08;0.40;;;;;;;10.52;100.00;95745.66;5023950;28;20069;-62
2024/02/08 11:46:51;;;;;;;2.05;0.30;;;;;;;10.63;100.00;95748.22;5018206;28;20049;-61
2024/02/08 11:49:31;;;;;;;1.90;0.30;;;;;;;10.63;100.00;95743.59;5018153;28;20095;-59
2024/02/08 11:52:06;;;;;;;0.30;0.20;;;;;;;10.86;100.00;95745.69;5021494;28;20127;-61
2024/02/08 11:54:37;;;;;;;2.67;0.40;;;;;;;10.63;100.00;95740.09;5023511;28;20634;-61
2024/02/08 11:57:11;;;;;;;2.27;0.40;;;;;;;10.53;100.00;95744.56;5021698;28;20053;-62
2024/02/08 11:59:44;;;;;;;3.72;0.60;;;;;;;10.75;100.00;95735.03;5018170;28;20060;-62
2024/02/08 12:02:15;;;;;;;1.35;0.47;;;;;;;10.78;100.00;95737.16;5022455;28;20053;-62
2024/02/08 12:04:43;;;;;;;2.08;0.50;;;;;;;10.88;100.00;95722.66;5022550;28;20072;-61
2024/02/08 12:07:14;;;;;;;2.70;0.50;;;;;;;11.06;100.00;95717.53;5017372;28;20033;-62
2024/02/08 12:09:41;;;;;;;;;;;;;;;11.07;100.00;95721.84;5022976;28;20129;-61
2024/02/08 12:12:08;;;;;;;2.80;0.60;;;;;;;11.06;100.00;95718.31;5018205;28;19943;-62
2024/02/08 12:14:39;;;;;;;4.43;0.68;;;;;;;11.20;100.00;95717.53;5024031;28;20564;-62
2024/02/08 12:17:06;;;;;;;2.60;0.75;;;;;;;11.13;100.00;95717.94;5015725;28;20045;-61
2024/02/08 12:19:33;;;;;;;2.92;1.17;;;;;;;11.19;100.00;95714.03;5020907;28;20045;-60
2024/02/08 12:22:04;;;;;;;2.88;0.82;;;;;;;11.17;100.00;95710.03;5023902;28;20042;-61
2024/02/08 12:24:32;;;;;;;3.15;0.75;;;;;;;11.16;100.00;95724.66;5017978;28;20038;-62
2024/02/08 12:27:08;;;;;;;0.98;0.40;;;;;;;11.21;100.00;95719.16;5030163;28;20041;-62
2024/02/08 12:29:46;;;;;;;5.05;0.70;;;;;;;11.19;100.00;95724.06;5022525;28;20055;-63
2024/02/08 12:32:17;;;;;;;8.18;0.80;;;;;;;11.14;100.00;95733.09;5021917;28;20049;-61
2024/02/08 12:34:47;;;;;;;5.65;1.88;;;;;;;11.24;100.00;95725.91;5024445;28;20050;-62
2024/02/08 12:37:16;;;;;;;3.72;1.20;;;;;;;11.16;100.00;95730.06;5031481;28;20049;-61
2024/02/08 12:39:44;;;;;;;5.15;0.98;;;;;;;11.30;100.00;95722.00;5013562;28;20045;-61
2024/02/08 12:42:14;;;;;;;3.88;1.48;;;;;;;11.42;100.00;95710.66;5026804;28;20053;-61
2024/02/08 12:44:48;;;;;;;6.00;1.00;;;;;;;11.39;100.00;95714.00;5019816;28;20049;-61
2024/02/08 12:47:17;;;;;;;6.13;0.85;;;;;;;11.53;100.00;95714.00;5024026;28;20505;-62
2024/02/08 12:49:46;;;;;;;6.57;1.13;;;;;;;11.67;100.00;95709.41;5034915;28;20090;-62
2024/02/08 12:52:15;;;;;;;7.10;1.20;;;;;;;11.31;100.00;95705.44;5027187;28;20049;-61
2024/02/08 12:54:52;;;;;;;9.98;1.38;;;;;;;11.38;100.00;95702.34;5023069;28;20041;-61
2024/02/08 12:57:20;;;;;;;8.20;1.40;;;;;;;11.70;100.00;95695.25;5026656;28;20055;-62
2024/02/08 12:59:47;;;;;;;8.02;1.60;;;;;;;11.71;100.00;95706.88;5021154;28;20548;-62
2024/02/08 13:02:18;;;;;;;7.45;1.50;;;;;;;11.61;100.00;95682.69;5029472;28;20045;-61
2024/02/08 13:04:48;;;;;;;7.65;1.58;;;;;;;11.89;100.00;95693.53;5025258;28;20747;-61
2024/02/08 13:07:16;;;;;;;15.07;3.35;;;;;;;11.84;100.00;95697.16;5031833;28;20045;-61
2024/02/08 13:09:44;;;;;;;5.43;1.50;;;;;;;11.66;100.00;95696.97;5027797;28;20063;-59
2024/02/08 13:12:18;;;;;;;7.97;1.98;;;;;;;11.89;100.00;95688.94;5024988;28;20579;-59
2024/02/08 13:14:50;;;;;;;17.13;3.03;;;;;;;11.84;100.00;95692.53;5027582;28;20069;-61
2024/02/08 13:17:21;;;;;;;8.52;1.88;;;;;;;11.92;100.00;95684.81;5027720;28;20041;-59
2024/02/08 13:19:55;;;;;;;10.45;2.00;;;;;;;11.66;100.00;95677.16;5025287;28;20049;-60
2024/02/08 13:22:24;;;;;;;9.05;2.20;;;;;;;11.91;100.00;95677.78;5030692;28;20132;-60
2024/02/08 13:24:52;;;;;;;9.23;2.63;;;;;;;12.04;100.00;95668.00;5026406;28;20602;-61
2024/02/08 13:27:24;;;;;;;11.20;2.28;;;;;;;12.16;100.00;95659.41;5016419;28;20126;-59
2024/02/08 13:29:57;;;;;;;16.27;1.70;;;;;;;12.17;100.00;95653.63;5004982;28;20056;-60
2024/02/08 13:32:27;;;;;;;14.90;3.47;;;;;;;11.94;100.00;95663.63;5020361;28;20107;-60
2024/02/08 13:34:58;;;;;;;13.93;2.95;;;;;;;12.07;100.00;95657.41;5017697;28;20041;-61
2024/02/08 13:37:27;;;;;;;;;;;;;;;12.15;100.00;95655.06;5029725;28;20124;-63
2024/02/08 13:39:59;;;;;;;7.15;1.50;;;;;;;12.09;100.00;95657.88;5023108;28;19929;-62
2024/02/08 13:42:30;;;;;;;10.50;2.17;;;;;;;12.26;100.00;95661.88;5020988;28;20064;-62
2024/02/08 13:45:14;;;;;;;13.18;3.25;;;;;;;12.34;100.00;95663.06;5027887;28;20512;-59
2024/02/08 13:47:49;;;;;;;7.72;2.15;;;;;;;12.15;100.00;95664.00;5017055;28;20049;-60
2024/02/08 13:50:17;;;;;;;11.77;2.45;;;;;;;12.17;100.00;95666.41;5020930;28;20045;-61
2024/02/08 13:52:48;;;;;;;13.07;2.15;;;;;;;12.28;100.00;95669.72;5024850;28;20103;-61
2024/02/08 13:55:18;;;;;;;9.65;2.13;;;;;;;12.43;100.00;95665.84;5022002;28;20042;-62